sensor_id;sensor_type;location;lat;lon;timestamp;temperature;humidity
62464;SHT31;48512;48.552;9.380;2023-03-12T00:01:57;-0.83;78.09
62464;SHT31;48512;48.552;9.380;2023-03-12T00:04:24;-0.82;78.07
62464;SHT31;48512;48.552;9.380;2023-03-12T00:06:49;-0.85;77.79
62464;SHT31;48512;48.552;9.380;2023-03-12T00:09:15;-0.74;77.67
62464;SHT31;48512;48.552;9.380;2023-03-12T00:11:40;-0.58;77.25
62464;SHT31;48512;48.552;9.380;2023-03-12T00:14:05;-0.72;77.16
62464;SHT31;48512;48.552;9.380;2023-03-12T00:16:31;-0.76;77.56
62464;SHT31;48512;48.552;9.380;2023-03-12T00:18:56;-0.81;77.54
62464;SHT31;48512;48.552;9.380;2023-03-12T00:21:22;-0.78;77.60
62464;SHT31;48512;48.552;9.380;2023-03-12T00:23:48;-0.82;77.78
62464;SHT31;48512;48.552;9.380;2023-03-12T00:26:15;-0.91;78.14
62464;SHT31;48512;48.552;9.380;2023-03-12T00:28:41;-0.91;78.30
62464;SHT31;48512;48.552;9.380;2023-03-12T00:31:22;-0.97;78.37
62464;SHT31;48512;48.552;9.380;2023-03-12T00:33:49;-0.88;77.88
62464;SHT31;48512;48.552;9.380;2023-03-12T00:36:15;-0.95;78.02
62464;SHT31;48512;48.552;9.380;2023-03-12T00:38:41;-1.00;78.18
62464;SHT31;48512;48.552;9.380;2023-03-12T00:41:07;-1.07;78.58
62464;SHT31;48512;48.552;9.380;2023-03-12T00:43:33;-1.06;78.67
62464;SHT31;48512;48.552;9.380;2023-03-12T00:45:58;-1.02;78.55
62464;SHT31;48512;48.552;9.380;2023-03-12T00:48:23;-1.03;78.76
62464;SHT31;48512;48.552;9.380;2023-03-12T00:50:49;-0.97;78.69
62464;SHT31;48512;48.552;9.380;2023-03-12T00:53:15;-1.07;78.67
62464;SHT31;48512;48.552;9.380;2023-03-12T00:55:40;-0.82;78.49
62464;SHT31;48512;48.552;9.380;2023-03-12T00:58:05;-0.96;78.29
62464;SHT31;48512;48.552;9.380;2023-03-12T01:00:31;-0.92;78.21
62464;SHT31;48512;48.552;9.380;2023-03-12T01:02:56;-1.03;78.59
62464;SHT31;48512;48.552;9.380;2023-03-12T01:05:22;-0.96;78.29
62464;SHT31;48512;48.552;9.380;2023-03-12T01:07:47;-1.03;78.55
62464;SHT31;48512;48.552;9.380;2023-03-12T01:10:14;-1.09;78.70
62464;SHT31;48512;48.552;9.380;2023-03-12T01:12:40;-1.14;78.92
62464;SHT31;48512;48.552;9.380;2023-03-12T01:15:07;-1.06;78.88
62464;SHT31;48512;48.552;9.380;2023-03-12T01:17:33;-1.09;78.95
62464;SHT31;48512;48.552;9.380;2023-03-12T01:19:58;-1.14;79.10
62464;SHT31;48512;48.552;9.380;2023-03-12T01:22:23;-1.16;79.22
62464;SHT31;48512;48.552;9.380;2023-03-12T01:24:49;-1.07;79.11
62464;SHT31;48512;48.552;9.380;2023-03-12T01:27:15;-0.88;78.71
62464;SHT31;48512;48.552;9.380;2023-03-12T01:29:40;-0.96;78.66
62464;SHT31;48512;48.552;9.380;2023-03-12T01:32:06;-0.89;78.77
62464;SHT31;48512;48.552;9.380;2023-03-12T01:34:32;-0.78;78.59
62464;SHT31;48512;48.552;9.380;2023-03-12T01:37:00;-0.72;78.57
62464;SHT31;48512;48.552;9.380;2023-03-12T01:39:26;-0.54;78.32
62464;SHT31;48512;48.552;9.380;2023-03-12T01:41:51;-0.40;77.44
62464;SHT31;48512;48.552;9.380;2023-03-12T01:44:17;-0.40;77.37
62464;SHT31;48512;48.552;9.380;2023-03-12T01:46:43;-0.17;77.10
62464;SHT31;48512;48.552;9.380;2023-03-12T01:49:16;-0.28;77.12
62464;SHT31;48512;48.552;9.380;2023-03-12T01:51:55;-0.20;77.38
62464;SHT31;48512;48.552;9.380;2023-03-12T01:54:26;-0.20;77.31
62464;SHT31;48512;48.552;9.380;2023-03-12T01:56:55;-0.23;77.45
62464;SHT31;48512;48.552;9.380;2023-03-12T01:59:44;-0.37;78.08
62464;SHT31;48512;48.552;9.380;2023-03-12T02:02:13;-0.42;78.61
62464;SHT31;48512;48.552;9.380;2023-03-12T02:04:39;-0.36;78.47
62464;SHT31;48512;48.552;9.380;2023-03-12T02:07:09;-0.38;78.84
62464;SHT31;48512;48.552;9.380;2023-03-12T02:09:40;-0.24;78.84
62464;SHT31;48512;48.552;9.380;2023-03-12T02:12:07;-0.31;79.03
62464;SHT31;48512;48.552;9.380;2023-03-12T02:14:33;-0.28;79.10
62464;SHT31;48512;48.552;9.380;2023-03-12T02:16:59;-0.40;79.40
62464;SHT31;48512;48.552;9.380;2023-03-12T02:21:58;-0.37;80.09
62464;SHT31;48512;48.552;9.380;2023-03-12T02:24:57;-0.20;79.95
62464;SHT31;48512;48.552;9.380;2023-03-12T02:27:30;-0.10;79.70
62464;SHT31;48512;48.552;9.380;2023-03-12T02:29:55;0.03;79.28
62464;SHT31;48512;48.552;9.380;2023-03-12T02:32:27;0.15;78.90
62464;SHT31;48512;48.552;9.380;2023-03-12T02:34:55;0.15;78.65
62464;SHT31;48512;48.552;9.380;2023-03-12T02:37:21;0.18;78.87
62464;SHT31;48512;48.552;9.380;2023-03-12T02:39:53;0.31;78.52
62464;SHT31;48512;48.552;9.380;2023-03-12T02:42:21;0.24;78.72
62464;SHT31;48512;48.552;9.380;2023-03-12T02:44:48;0.25;78.33
62464;SHT31;48512;48.552;9.380;2023-03-12T02:47:13;0.29;78.25
62464;SHT31;48512;48.552;9.380;2023-03-12T02:49:39;0.28;78.64
62464;SHT31;48512;48.552;9.380;2023-03-12T02:52:04;0.33;78.63
62464;SHT31;48512;48.552;9.380;2023-03-12T02:54:30;0.41;78.24
62464;SHT31;48512;48.552;9.380;2023-03-12T02:56:55;0.48;77.82
62464;SHT31;48512;48.552;9.380;2023-03-12T02:59:22;0.55;77.87
62464;SHT31;48512;48.552;9.380;2023-03-12T03:01:55;0.45;77.85
62464;SHT31;48512;48.552;9.380;2023-03-12T03:04:21;0.42;78.68
62464;SHT31;48512;48.552;9.380;2023-03-12T03:06:47;0.50;78.15
62464;SHT31;48512;48.552;9.380;2023-03-12T03:09:13;0.56;77.74
62464;SHT31;48512;48.552;9.380;2023-03-12T03:11:38;0.44;78.28
62464;SHT31;48512;48.552;9.380;2023-03-12T03:14:04;0.65;78.09
62464;SHT31;48512;48.552;9.380;2023-03-12T03:16:31;0.55;78.28
62464;SHT31;48512;48.552;9.380;2023-03-12T03:18:57;0.48;79.30
62464;SHT31;48512;48.552;9.380;2023-03-12T03:21:22;0.62;78.83
62464;SHT31;48512;48.552;9.380;2023-03-12T03:23:49;0.65;78.68
62464;SHT31;48512;48.552;9.380;2023-03-12T03:26:16;0.58;78.98
62464;SHT31;48512;48.552;9.380;2023-03-12T03:28:42;0.55;79.26
62464;SHT31;48512;48.552;9.380;2023-03-12T03:31:08;0.65;78.83
62464;SHT31;48512;48.552;9.380;2023-03-12T03:33:35;0.73;78.67
62464;SHT31;48512;48.552;9.380;2023-03-12T03:36:01;0.65;79.09
62464;SHT31;48512;48.552;9.380;2023-03-12T03:38:28;0.56;79.79
62464;SHT31;48512;48.552;9.380;2023-03-12T03:40:53;0.70;79.50
62464;SHT31;48512;48.552;9.380;2023-03-12T03:43:19;0.69;79.83
62464;SHT31;48512;48.552;9.380;2023-03-12T03:45:45;0.69;79.86
62464;SHT31;48512;48.552;9.380;2023-03-12T03:48:11;0.60;80.75
62464;SHT31;48512;48.552;9.380;2023-03-12T03:50:38;0.73;80.49
62464;SHT31;48512;48.552;9.380;2023-03-12T03:53:05;0.76;80.32
62464;SHT31;48512;48.552;9.380;2023-03-12T03:55:30;0.83;80.46
62464;SHT31;48512;48.552;9.380;2023-03-12T03:57:56;0.89;80.44
62464;SHT31;48512;48.552;9.380;2023-03-12T04:00:21;1.04;80.08
62464;SHT31;48512;48.552;9.380;2023-03-12T04:02:47;1.11;79.59
62464;SHT31;48512;48.552;9.380;2023-03-12T04:05:12;1.14;79.62
62464;SHT31;48512;48.552;9.380;2023-03-12T04:07:40;1.17;79.60
62464;SHT31;48512;48.552;9.380;2023-03-12T04:10:05;1.23;79.50
62464;SHT31;48512;48.552;9.380;2023-03-12T04:12:31;1.28;79.26
62464;SHT31;48512;48.552;9.380;2023-03-12T04:14:56;1.34;78.88
62464;SHT31;48512;48.552;9.380;2023-03-12T04:17:22;1.42;78.66
62464;SHT31;48512;48.552;9.380;2023-03-12T04:19:47;1.31;78.18
62464;SHT31;48512;48.552;9.380;2023-03-12T04:22:13;1.24;78.17
62464;SHT31;48512;48.552;9.380;2023-03-12T04:24:38;1.14;79.39
62464;SHT31;48512;48.552;9.380;2023-03-12T04:27:03;1.13;80.28
62464;SHT31;48512;48.552;9.380;2023-03-12T04:29:29;1.07;81.67
62464;SHT31;48512;48.552;9.380;2023-03-12T04:31:54;1.25;81.79
62464;SHT31;48512;48.552;9.380;2023-03-12T04:34:20;1.35;82.32
62464;SHT31;48512;48.552;9.380;2023-03-12T04:36:46;1.46;82.13
62464;SHT31;48512;48.552;9.380;2023-03-12T04:39:12;1.51;82.54
62464;SHT31;48512;48.552;9.380;2023-03-12T04:41:38;1.66;81.96
62464;SHT31;48512;48.552;9.380;2023-03-12T04:44:04;1.76;81.93
62464;SHT31;48512;48.552;9.380;2023-03-12T04:46:29;1.79;81.95
62464;SHT31;48512;48.552;9.380;2023-03-12T04:48:55;1.89;81.32
62464;SHT31;48512;48.552;9.380;2023-03-12T04:51:22;1.86;81.30
62464;SHT31;48512;48.552;9.380;2023-03-12T04:53:47;1.86;81.04
62464;SHT31;48512;48.552;9.380;2023-03-12T04:56:13;1.99;80.54
62464;SHT31;48512;48.552;9.380;2023-03-12T04:58:38;1.97;80.25
62464;SHT31;48512;48.552;9.380;2023-03-12T05:01:03;2.06;79.66
62464;SHT31;48512;48.552;9.380;2023-03-12T05:03:30;2.20;78.80
62464;SHT31;48512;48.552;9.380;2023-03-12T05:05:55;2.27;78.19
62464;SHT31;48512;48.552;9.380;2023-03-12T05:08:21;2.35;77.63
62464;SHT31;48512;48.552;9.380;2023-03-12T05:10:46;2.35;77.54
62464;SHT31;48512;48.552;9.380;2023-03-12T05:13:16;2.42;77.25
62464;SHT31;48512;48.552;9.380;2023-03-12T05:15:43;2.44;77.11
62464;SHT31;48512;48.552;9.380;2023-03-12T05:18:08;2.45;76.75
62464;SHT31;48512;48.552;9.380;2023-03-12T05:20:34;2.48;76.83
62464;SHT31;48512;48.552;9.380;2023-03-12T05:22:59;2.68;76.89
62464;SHT31;48512;48.552;9.380;2023-03-12T05:25:24;2.68;76.52
62464;SHT31;48512;48.552;9.380;2023-03-12T05:27:50;2.63;76.77
62464;SHT31;48512;48.552;9.380;2023-03-12T05:30:15;2.69;77.02
62464;SHT31;48512;48.552;9.380;2023-03-12T05:32:41;2.65;77.31
62464;SHT31;48512;48.552;9.380;2023-03-12T05:35:06;2.78;78.63
62464;SHT31;48512;48.552;9.380;2023-03-12T05:37:32;2.79;79.15
62464;SHT31;48512;48.552;9.380;2023-03-12T05:39:57;2.73;80.20
62464;SHT31;48512;48.552;9.380;2023-03-12T05:42:23;2.76;80.75
62464;SHT31;48512;48.552;9.380;2023-03-12T05:44:49;2.72;81.97
62464;SHT31;48512;48.552;9.380;2023-03-12T05:47:15;2.68;82.79
62464;SHT31;48512;48.552;9.380;2023-03-12T05:49:41;2.72;83.64
62464;SHT31;48512;48.552;9.380;2023-03-12T05:52:06;2.66;84.35
62464;SHT31;48512;48.552;9.380;2023-03-12T05:54:32;2.68;83.95
62464;SHT31;48512;48.552;9.380;2023-03-12T05:56:57;2.61;84.62
62464;SHT31;48512;48.552;9.380;2023-03-12T05:59:23;2.61;84.86
62464;SHT31;48512;48.552;9.380;2023-03-12T06:01:48;2.63;85.64
62464;SHT31;48512;48.552;9.380;2023-03-12T06:04:14;2.63;85.21
62464;SHT31;48512;48.552;9.380;2023-03-12T06:06:39;2.72;84.96
62464;SHT31;48512;48.552;9.380;2023-03-12T06:09:05;2.86;84.82
62464;SHT31;48512;48.552;9.380;2023-03-12T06:11:32;2.96;84.78
62464;SHT31;48512;48.552;9.380;2023-03-12T06:13:58;2.88;83.83
62464;SHT31;48512;48.552;9.380;2023-03-12T06:16:25;2.89;83.41
62464;SHT31;48512;48.552;9.380;2023-03-12T06:19:00;2.88;83.57
62464;SHT31;48512;48.552;9.380;2023-03-12T06:21:28;2.90;83.60
62464;SHT31;48512;48.552;9.380;2023-03-12T06:23:54;2.97;83.98
62464;SHT31;48512;48.552;9.380;2023-03-12T06:26:21;2.97;83.89
62464;SHT31;48512;48.552;9.380;2023-03-12T06:28:48;3.00;83.88
62464;SHT31;48512;48.552;9.380;2023-03-12T06:31:14;3.07;84.21
62464;SHT31;48512;48.552;9.380;2023-03-12T06:33:40;2.99;84.60
62464;SHT31;48512;48.552;9.380;2023-03-12T06:36:07;2.96;84.70
62464;SHT31;48512;48.552;9.380;2023-03-12T06:38:33;3.01;84.69
62464;SHT31;48512;48.552;9.380;2023-03-12T06:41:11;2.97;85.70
62464;SHT31;48512;48.552;9.380;2023-03-12T06:43:37;3.04;86.35
62464;SHT31;48512;48.552;9.380;2023-03-12T06:46:04;3.04;86.62
62464;SHT31;48512;48.552;9.380;2023-03-12T06:48:31;3.06;86.76
62464;SHT31;48512;48.552;9.380;2023-03-12T06:51:10;3.20;87.05
62464;SHT31;48512;48.552;9.380;2023-03-12T06:53:35;3.17;87.32
62464;SHT31;48512;48.552;9.380;2023-03-12T06:56:01;3.28;87.42
62464;SHT31;48512;48.552;9.380;2023-03-12T06:58:26;3.24;87.54
62464;SHT31;48512;48.552;9.380;2023-03-12T07:00:53;3.39;87.71
62464;SHT31;48512;48.552;9.380;2023-03-12T07:03:19;3.39;87.63
62464;SHT31;48512;48.552;9.380;2023-03-12T07:05:47;3.42;88.38
62464;SHT31;48512;48.552;9.380;2023-03-12T07:08:13;3.45;88.42
62464;SHT31;48512;48.552;9.380;2023-03-12T07:10:38;3.54;88.43
62464;SHT31;48512;48.552;9.380;2023-03-12T07:13:04;3.56;88.78
62464;SHT31;48512;48.552;9.380;2023-03-12T07:15:29;3.51;89.26
62464;SHT31;48512;48.552;9.380;2023-03-12T07:17:59;3.52;89.42
62464;SHT31;48512;48.552;9.380;2023-03-12T07:20:24;3.62;89.16
62464;SHT31;48512;48.552;9.380;2023-03-12T07:22:50;3.65;89.20
62464;SHT31;48512;48.552;9.380;2023-03-12T07:25:15;3.74;89.21
62464;SHT31;48512;48.552;9.380;2023-03-12T07:27:40;4.44;89.53
62464;SHT31;48512;48.552;9.380;2023-03-12T07:30:06;4.41;87.73
62464;SHT31;48512;48.552;9.380;2023-03-12T07:32:32;4.29;87.91
62464;SHT31;48512;48.552;9.380;2023-03-12T07:34:57;4.25;87.76
62464;SHT31;48512;48.552;9.380;2023-03-12T07:37:23;4.25;88.02
62464;SHT31;48512;48.552;9.380;2023-03-12T07:39:48;4.23;88.29
62464;SHT31;48512;48.552;9.380;2023-03-12T07:42:16;4.14;88.69
62464;SHT31;48512;48.552;9.380;2023-03-12T07:44:42;4.21;89.23
62464;SHT31;48512;48.552;9.380;2023-03-12T07:47:07;4.31;88.80
62464;SHT31;48512;48.552;9.380;2023-03-12T07:49:32;4.34;88.64
62464;SHT31;48512;48.552;9.380;2023-03-12T07:51:58;4.36;88.76
62464;SHT31;48512;48.552;9.380;2023-03-12T07:54:23;4.61;88.73
62464;SHT31;48512;48.552;9.380;2023-03-12T07:56:55;4.61;88.59
62464;SHT31;48512;48.552;9.380;2023-03-12T07:59:20;4.71;88.92
62464;SHT31;48512;48.552;9.380;2023-03-12T08:01:46;4.73;89.12
62464;SHT31;48512;48.552;9.380;2023-03-12T08:04:12;4.83;89.63
62464;SHT31;48512;48.552;9.380;2023-03-12T08:06:37;4.88;89.68
62464;SHT31;48512;48.552;9.380;2023-03-12T08:09:07;5.03;89.69
62464;SHT31;48512;48.552;9.380;2023-03-12T08:11:32;6.07;88.42
62464;SHT31;48512;48.552;9.380;2023-03-12T08:13:58;5.92;86.34
62464;SHT31;48512;48.552;9.380;2023-03-12T08:16:24;5.78;86.69
62464;SHT31;48512;48.552;9.380;2023-03-12T08:18:49;5.72;87.41
62464;SHT31;48512;48.552;9.380;2023-03-12T08:21:15;5.85;85.92
62464;SHT31;48512;48.552;9.380;2023-03-12T08:23:41;5.68;86.81
62464;SHT31;48512;48.552;9.380;2023-03-12T08:26:06;5.85;87.11
62464;SHT31;48512;48.552;9.380;2023-03-12T08:28:32;6.02;86.07
62464;SHT31;48512;48.552;9.380;2023-03-12T08:30:59;6.14;86.12
62464;SHT31;48512;48.552;9.380;2023-03-12T08:33:25;6.16;86.35
62464;SHT31;48512;48.552;9.380;2023-03-12T08:35:51;6.16;86.11
62464;SHT31;48512;48.552;9.380;2023-03-12T08:38:17;6.40;85.88
62464;SHT31;48512;48.552;9.380;2023-03-12T08:40:43;6.43;86.07
62464;SHT31;48512;48.552;9.380;2023-03-12T08:43:09;6.55;85.46
62464;SHT31;48512;48.552;9.380;2023-03-12T08:45:35;6.54;85.74
62464;SHT31;48512;48.552;9.380;2023-03-12T08:48:05;6.55;85.45
62464;SHT31;48512;48.552;9.380;2023-03-12T08:50:30;6.51;86.20
62464;SHT31;48512;48.552;9.380;2023-03-12T08:52:57;6.65;85.75
62464;SHT31;48512;48.552;9.380;2023-03-12T08:55:23;6.65;85.14
62464;SHT31;48512;48.552;9.380;2023-03-12T08:57:49;6.65;85.91
62464;SHT31;48512;48.552;9.380;2023-03-12T09:00:14;6.75;85.47
62464;SHT31;48512;48.552;9.380;2023-03-12T09:02:43;7.02;84.90
62464;SHT31;48512;48.552;9.380;2023-03-12T09:05:09;7.03;85.00
62464;SHT31;48512;48.552;9.380;2023-03-12T09:07:36;6.98;85.01
62464;SHT31;48512;48.552;9.380;2023-03-12T09:10:01;7.09;85.04
62464;SHT31;48512;48.552;9.380;2023-03-12T09:12:27;7.30;84.02
62464;SHT31;48512;48.552;9.380;2023-03-12T09:14:52;7.27;85.08
62464;SHT31;48512;48.552;9.380;2023-03-12T09:17:18;7.39;85.14
62464;SHT31;48512;48.552;9.380;2023-03-12T09:19:43;7.51;84.95
62464;SHT31;48512;48.552;9.380;2023-03-12T09:22:09;7.33;85.41
62464;SHT31;48512;48.552;9.380;2023-03-12T09:24:34;7.61;85.53
62464;SHT31;48512;48.552;9.380;2023-03-12T09:27:01;7.70;84.44
62464;SHT31;48512;48.552;9.380;2023-03-12T09:29:26;7.58;84.91
62464;SHT31;48512;48.552;9.380;2023-03-12T09:31:52;7.70;85.23
62464;SHT31;48512;48.552;9.380;2023-03-12T09:34:17;7.85;85.10
62464;SHT31;48512;48.552;9.380;2023-03-12T09:36:42;7.84;83.80
62464;SHT31;48512;48.552;9.380;2023-03-12T09:39:08;7.78;84.88
62464;SHT31;48512;48.552;9.380;2023-03-12T09:41:38;7.89;84.62
62464;SHT31;48512;48.552;9.380;2023-03-12T09:44:38;8.02;84.66
62464;SHT31;48512;48.552;9.380;2023-03-12T09:47:09;7.82;84.12
62464;SHT31;48512;48.552;9.380;2023-03-12T09:49:43;7.99;85.28
62464;SHT31;48512;48.552;9.380;2023-03-12T09:52:24;8.06;83.67
62464;SHT31;48512;48.552;9.380;2023-03-12T09:57:30;8.17;83.78
62464;SHT31;48512;48.552;9.380;2023-03-12T09:59:55;8.15;84.84
62464;SHT31;48512;48.552;9.380;2023-03-12T10:10:44;8.61;83.54
62464;SHT31;48512;48.552;9.380;2023-03-12T10:13:22;8.68;82.76
62464;SHT31;48512;48.552;9.380;2023-03-12T10:28:52;8.99;81.87
62464;SHT31;48512;48.552;9.380;2023-03-12T10:36:46;9.40;81.49
62464;SHT31;48512;48.552;9.380;2023-03-12T10:39:17;9.39;81.21
62464;SHT31;48512;48.552;9.380;2023-03-12T10:41:45;9.28;81.79
62464;SHT31;48512;48.552;9.380;2023-03-12T10:44:23;9.36;82.31
62464;SHT31;48512;48.552;9.380;2023-03-12T10:52:04;9.85;79.79
62464;SHT31;48512;48.552;9.380;2023-03-12T10:54:34;9.74;79.98
62464;SHT31;48512;48.552;9.380;2023-03-12T10:57:00;9.93;80.49
62464;SHT31;48512;48.552;9.380;2023-03-12T10:59:31;9.94;79.76
62464;SHT31;48512;48.552;9.380;2023-03-12T11:01:58;10.04;80.19
62464;SHT31;48512;48.552;9.380;2023-03-12T11:04:29;10.06;79.66
62464;SHT31;48512;48.552;9.380;2023-03-12T11:12:34;10.09;79.61
62464;SHT31;48512;48.552;9.380;2023-03-12T11:15:38;10.26;80.28
62464;SHT31;48512;48.552;9.380;2023-03-12T11:18:19;10.28;78.97
62464;SHT31;48512;48.552;9.380;2023-03-12T11:20:47;10.25;78.74
62464;SHT31;48512;48.552;9.380;2023-03-12T11:23:19;10.22;78.78
62464;SHT31;48512;48.552;9.380;2023-03-12T11:25:54;10.15;79.27
62464;SHT31;48512;48.552;9.380;2023-03-12T11:28:23;10.14;79.28
62464;SHT31;48512;48.552;9.380;2023-03-12T11:30:51;10.08;79.39
62464;SHT31;48512;48.552;9.380;2023-03-12T11:33:17;10.08;79.65
62464;SHT31;48512;48.552;9.380;2023-03-12T11:38:33;10.35;78.79
62464;SHT31;48512;48.552;9.380;2023-03-12T11:41:22;10.24;78.52
62464;SHT31;48512;48.552;9.380;2023-03-12T11:46:48;10.36;78.06
62464;SHT31;48512;48.552;9.380;2023-03-12T12:00:30;10.42;77.78
62464;SHT31;48512;48.552;9.380;2023-03-12T12:05:34;10.66;77.62
62464;SHT31;48512;48.552;9.380;2023-03-12T12:27:23;11.18;74.85
62464;SHT31;48512;48.552;9.380;2023-03-12T12:35:38;11.58;72.73
62464;SHT31;48512;48.552;9.380;2023-03-12T12:43:37;11.72;70.82
62464;SHT31;48512;48.552;9.380;2023-03-12T12:46:21;12.18;69.37
62464;SHT31;48512;48.552;9.380;2023-03-12T12:48:55;12.28;69.95
62464;SHT31;48512;48.552;9.380;2023-03-12T12:51:29;12.32;69.51
62464;SHT31;48512;48.552;9.380;2023-03-12T12:54:18;12.45;68.14
62464;SHT31;48512;48.552;9.380;2023-03-12T13:01:56;12.53;67.61
62464;SHT31;48512;48.552;9.380;2023-03-12T13:04:36;12.30;69.36
62464;SHT31;48512;48.552;9.380;2023-03-12T13:09:50;12.18;69.51
62464;SHT31;48512;48.552;9.380;2023-03-12T13:12:28;12.28;69.25
62464;SHT31;48512;48.552;9.380;2023-03-12T13:14:56;12.32;67.72
62464;SHT31;48512;48.552;9.380;2023-03-12T13:19:49;12.05;69.54
62464;SHT31;48512;48.552;9.380;2023-03-12T13:27:39;12.41;67.88
62464;SHT31;48512;48.552;9.380;2023-03-12T13:40:36;12.49;66.90
62464;SHT31;48512;48.552;9.380;2023-03-12T13:45:30;12.40;66.42
62464;SHT31;48512;48.552;9.380;2023-03-12T13:48:01;12.37;66.69
62464;SHT31;48512;48.552;9.380;2023-03-12T13:50:40;12.31;67.19
62464;SHT31;48512;48.552;9.380;2023-03-12T13:53:07;12.08;68.21
62464;SHT31;48512;48.552;9.380;2023-03-12T13:55:38;12.04;67.89
62464;SHT31;48512;48.552;9.380;2023-03-12T13:58:19;12.11;66.97
62464;SHT31;48512;48.552;9.380;2023-03-12T14:01:03;11.97;67.50
62464;SHT31;48512;48.552;9.380;2023-03-12T14:17:13;12.13;70.32
62464;SHT31;48512;48.552;9.380;2023-03-12T14:19:41;12.01;70.61
62464;SHT31;48512;48.552;9.380;2023-03-12T14:22:10;12.00;69.40
62464;SHT31;48512;48.552;9.380;2023-03-12T14:24:39;12.01;70.04
62464;SHT31;48512;48.552;9.380;2023-03-12T14:27:13;11.89;70.95
62464;SHT31;48512;48.552;9.380;2023-03-12T14:29:42;11.80;72.26
62464;SHT31;48512;48.552;9.380;2023-03-12T14:32:19;11.79;71.45
62464;SHT31;48512;48.552;9.380;2023-03-12T14:38:05;11.79;73.55
62464;SHT31;48512;48.552;9.380;2023-03-12T14:43:23;11.87;73.08
62464;SHT31;48512;48.552;9.380;2023-03-12T14:45:50;11.69;73.61
62464;SHT31;48512;48.552;9.380;2023-03-12T14:48:31;11.70;73.15
62464;SHT31;48512;48.552;9.380;2023-03-12T14:50:57;11.63;73.53
62464;SHT31;48512;48.552;9.380;2023-03-12T14:53:27;11.51;74.01
62464;SHT31;48512;48.552;9.380;2023-03-12T14:58:28;11.59;73.41
62464;SHT31;48512;48.552;9.380;2023-03-12T15:01:05;11.61;73.49
62464;SHT31;48512;48.552;9.380;2023-03-12T15:03:39;11.51;74.15
62464;SHT31;48512;48.552;9.380;2023-03-12T15:06:14;11.62;72.77
62464;SHT31;48512;48.552;9.380;2023-03-12T15:08:42;11.40;72.99
62464;SHT31;48512;48.552;9.380;2023-03-12T15:11:09;11.67;72.02
62464;SHT31;48512;48.552;9.380;2023-03-12T15:13:37;11.29;73.25
62464;SHT31;48512;48.552;9.380;2023-03-12T15:16:04;11.39;73.04
62464;SHT31;48512;48.552;9.380;2023-03-12T15:18:31;11.22;73.89
62464;SHT31;48512;48.552;9.380;2023-03-12T15:20:59;11.29;73.02
62464;SHT31;48512;48.552;9.380;2023-03-12T15:23:28;11.29;73.86
62464;SHT31;48512;48.552;9.380;2023-03-12T15:28:33;11.28;73.86
62464;SHT31;48512;48.552;9.380;2023-03-12T15:31:17;11.18;74.81
62464;SHT31;48512;48.552;9.380;2023-03-12T15:33:43;11.39;74.24
62464;SHT31;48512;48.552;9.380;2023-03-12T15:38:52;11.86;71.93
62464;SHT31;48512;48.552;9.380;2023-03-12T15:41:39;12.03;71.92
62464;SHT31;48512;48.552;9.380;2023-03-12T15:44:23;12.00;72.51
62464;SHT31;48512;48.552;9.380;2023-03-12T15:46:54;11.86;72.70
62464;SHT31;48512;48.552;9.380;2023-03-12T15:49:27;11.89;72.36
62464;SHT31;48512;48.552;9.380;2023-03-12T15:52:24;12.00;71.58
62464;SHT31;48512;48.552;9.380;2023-03-12T15:55:00;12.05;70.41
62464;SHT31;48512;48.552;9.380;2023-03-12T15:57:27;11.87;71.24
62464;SHT31;48512;48.552;9.380;2023-03-12T16:00:41;11.80;71.35
62464;SHT31;48512;48.552;9.380;2023-03-12T16:03:18;11.67;71.75
62464;SHT31;48512;48.552;9.380;2023-03-12T16:05:44;11.72;71.40
62464;SHT31;48512;48.552;9.380;2023-03-12T16:08:22;11.73;71.33
62464;SHT31;48512;48.552;9.380;2023-03-12T16:10:51;11.59;71.78
62464;SHT31;48512;48.552;9.380;2023-03-12T16:13:19;11.82;70.97
62464;SHT31;48512;48.552;9.380;2023-03-12T16:15:45;11.77;70.98
62464;SHT31;48512;48.552;9.380;2023-03-12T16:18:19;11.58;71.48
62464;SHT31;48512;48.552;9.380;2023-03-12T16:20:45;11.67;72.35
62464;SHT31;48512;48.552;9.380;2023-03-12T16:23:11;12.34;72.07
62464;SHT31;48512;48.552;9.380;2023-03-12T16:25:37;12.48;68.14
62464;SHT31;48512;48.552;9.380;2023-03-12T16:28:04;12.79;66.37
62464;SHT31;48512;48.552;9.380;2023-03-12T16:30:32;12.41;67.49
62464;SHT31;48512;48.552;9.380;2023-03-12T16:33:00;11.87;69.26
62464;SHT31;48512;48.552;9.380;2023-03-12T16:35:26;11.77;69.02
62464;SHT31;48512;48.552;9.380;2023-03-12T16:37:53;11.58;69.95
62464;SHT31;48512;48.552;9.380;2023-03-12T16:40:18;11.87;69.93
62464;SHT31;48512;48.552;9.380;2023-03-12T16:42:47;11.83;70.03
62464;SHT31;48512;48.552;9.380;2023-03-12T16:45:14;11.77;69.87
62464;SHT31;48512;48.552;9.380;2023-03-12T16:47:41;11.67;70.05
62464;SHT31;48512;48.552;9.380;2023-03-12T16:50:21;11.59;70.22
62464;SHT31;48512;48.552;9.380;2023-03-12T16:52:48;11.61;68.59
62464;SHT31;48512;48.552;9.380;2023-03-12T16:55:18;11.62;68.99
62464;SHT31;48512;48.552;9.380;2023-03-12T16:57:55;11.45;69.07
62464;SHT31;48512;48.552;9.380;2023-03-12T17:00:23;11.34;69.70
62464;SHT31;48512;48.552;9.380;2023-03-12T17:02:51;11.43;69.67
62464;SHT31;48512;48.552;9.380;2023-03-12T17:05:19;11.31;69.00
62464;SHT31;48512;48.552;9.380;2023-03-12T17:07:44;11.19;69.46
62464;SHT31;48512;48.552;9.380;2023-03-12T17:10:11;11.10;69.68
62464;SHT31;48512;48.552;9.380;2023-03-12T17:12:38;11.22;68.57
62464;SHT31;48512;48.552;9.380;2023-03-12T17:15:10;11.10;69.34
62464;SHT31;48512;48.552;9.380;2023-03-12T17:17:36;11.10;69.07
62464;SHT31;48512;48.552;9.380;2023-03-12T17:20:01;11.01;68.87
62464;SHT31;48512;48.552;9.380;2023-03-12T17:22:31;11.18;67.98
62464;SHT31;48512;48.552;9.380;2023-03-12T17:24:57;11.10;68.14
62464;SHT31;48512;48.552;9.380;2023-03-12T17:27:23;10.87;68.75
62464;SHT31;48512;48.552;9.380;2023-03-12T17:29:48;11.01;66.93
62464;SHT31;48512;48.552;9.380;2023-03-12T17:32:14;10.87;67.31
62464;SHT31;48512;48.552;9.380;2023-03-12T17:34:39;10.89;67.59
62464;SHT31;48512;48.552;9.380;2023-03-12T17:37:05;11.03;67.27
62464;SHT31;48512;48.552;9.380;2023-03-12T17:39:30;11.08;66.20
62464;SHT31;48512;48.552;9.380;2023-03-12T17:41:56;11.01;66.16
62464;SHT31;48512;48.552;9.380;2023-03-12T17:44:22;10.93;66.47
62464;SHT31;48512;48.552;9.380;2023-03-12T17:46:47;10.89;66.53
62464;SHT31;48512;48.552;9.380;2023-03-12T17:49:13;10.83;66.58
62464;SHT31;48512;48.552;9.380;2023-03-12T17:51:38;11.00;65.56
62464;SHT31;48512;48.552;9.380;2023-03-12T17:54:04;10.93;65.35
62464;SHT31;48512;48.552;9.380;2023-03-12T17:56:29;10.77;65.69
62464;SHT31;48512;48.552;9.380;2023-03-12T17:58:55;10.74;66.14
62464;SHT31;48512;48.552;9.380;2023-03-12T18:01:20;10.69;66.20
62464;SHT31;48512;48.552;9.380;2023-03-12T18:03:46;10.53;66.64
62464;SHT31;48512;48.552;9.380;2023-03-12T18:06:14;10.50;66.99
62464;SHT31;48512;48.552;9.380;2023-03-12T18:08:39;10.74;65.48
62464;SHT31;48512;48.552;9.380;2023-03-12T18:11:04;10.67;65.47
62464;SHT31;48512;48.552;9.380;2023-03-12T18:13:30;10.55;66.59